sensor_id;sensor_type;location;lat;lon;timestamp;P1;durP1;ratioP1;P2;durP2;ratioP2
12687;SDS011;6408;59.388;17.798;2023-03-01T00:01:06;2.50;;;1.00;;
12687;SDS011;6408;59.388;17.798;2023-03-01T00:03:36;7.33;;;1.00;;
12687;SDS011;6408;59.388;17.798;2023-03-01T00:06:04;1.97;;;0.77;;
12687;SDS011;6408;59.388;17.798;2023-03-01T00:08:33;3.80;;;1.00;;
12687;SDS011;6408;59.388;17.798;2023-03-01T00:11:02;2.30;;;0.93;;
12687;SDS011;6408;59.388;17.798;2023-03-01T00:13:31;2.93;;;1.10;;
12687;SDS011;6408;59.388;17.798;2023-03-01T00:16:02;2.47;;;0.77;;
12687;SDS011;6408;59.388;17.798;2023-03-01T00:18:30;1.77;;;0.57;;
12687;SDS011;6408;59.388;17.798;2023-03-01T00:20:59;1.40;;;0.70;;
12687;SDS011;6408;59.388;17.798;2023-03-01T00:23:27;3.50;;;1.03;;
12687;SDS011;6408;59.388;17.798;2023-03-01T00:25:55;2.27;;;0.97;;
12687;SDS011;6408;59.388;17.798;2023-03-01T00:28:22;2.30;;;0.80;;
12687;SDS011;6408;59.388;17.798;2023-03-01T00:30:50;3.40;;;0.77;;
12687;SDS011;6408;59.388;17.798;2023-03-01T00:33:18;2.00;;;1.10;;
12687;SDS011;6408;59.388;17.798;2023-03-01T00:35:45;4.60;;;1.03;;
12687;SDS011;6408;59.388;17.798;2023-03-01T00:38:15;4.47;;;0.80;;
12687;SDS011;6408;59.388;17.798;2023-03-01T00:40:42;6.13;;;0.97;;
12687;SDS011;6408;59.388;17.798;2023-03-01T00:43:10;3.73;;;0.90;;
12687;SDS011;6408;59.388;17.798;2023-03-01T00:45:38;6.23;;;0.97;;
12687;SDS011;6408;59.388;17.798;2023-03-01T00:48:05;1.47;;;0.70;;
12687;SDS011;6408;59.388;17.798;2023-03-01T00:50:33;1.80;;;0.70;;
12687;SDS011;6408;59.388;17.798;2023-03-01T00:53:00;2.70;;;1.03;;
12687;SDS011;6408;59.388;17.798;2023-03-01T00:55:30;1.97;;;0.90;;
12687;SDS011;6408;59.388;17.798;2023-03-01T00:57:57;4.40;;;0.80;;
12687;SDS011;6408;59.388;17.798;2023-03-01T01:00:25;5.00;;;0.83;;
12687;SDS011;6408;59.388;17.798;2023-03-01T01:02:53;2.10;;;0.83;;
12687;SDS011;6408;59.388;17.798;2023-03-01T01:05:21;1.43;;;0.60;;
12687;SDS011;6408;59.388;17.798;2023-03-01T01:07:49;4.40;;;1.00;;
12687;SDS011;6408;59.388;17.798;2023-03-01T01:10:16;2.40;;;0.83;;
12687;SDS011;6408;59.388;17.798;2023-03-01T01:12:46;4.07;;;1.20;;
12687;SDS011;6408;59.388;17.798;2023-03-01T01:15:13;1.83;;;0.70;;
12687;SDS011;6408;59.388;17.798;2023-03-01T01:17:41;1.70;;;0.63;;
12687;SDS011;6408;59.388;17.798;2023-03-01T01:20:10;2.87;;;1.10;;
12687;SDS011;6408;59.388;17.798;2023-03-01T01:22:38;2.33;;;0.70;;
12687;SDS011;6408;59.388;17.798;2023-03-01T01:25:06;7.10;;;0.90;;
12687;SDS011;6408;59.388;17.798;2023-03-01T01:27:34;2.70;;;1.10;;
12687;SDS011;6408;59.388;17.798;2023-03-01T01:30:05;6.20;;;1.10;;
12687;SDS011;6408;59.388;17.798;2023-03-01T01:32:33;1.17;;;0.80;;
12687;SDS011;6408;59.388;17.798;2023-03-01T01:35:01;1.87;;;0.80;;
12687;SDS011;6408;59.388;17.798;2023-03-01T01:37:28;1.80;;;0.70;;
12687;SDS011;6408;59.388;17.798;2023-03-01T01:39:57;3.33;;;1.07;;
12687;SDS011;6408;59.388;17.798;2023-03-01T01:42:26;3.27;;;0.80;;
12687;SDS011;6408;59.388;17.798;2023-03-01T01:48:00;1.57;;;0.93;;
12687;SDS011;6408;59.388;17.798;2023-03-01T01:50:31;2.10;;;1.20;;
12687;SDS011;6408;59.388;17.798;2023-03-01T01:53:09;3.30;;;0.90;;
12687;SDS011;6408;59.388;17.798;2023-03-01T01:55:39;2.73;;;0.77;;
12687;SDS011;6408;59.388;17.798;2023-03-01T01:58:12;1.33;;;0.90;;
12687;SDS011;6408;59.388;17.798;2023-03-01T02:00:42;2.83;;;0.63;;
12687;SDS011;6408;59.388;17.798;2023-03-01T02:03:12;1.87;;;0.83;;
12687;SDS011;6408;59.388;17.798;2023-03-01T02:05:44;1.27;;;0.70;;
12687;SDS011;6408;59.388;17.798;2023-03-01T02:08:18;4.13;;;0.87;;
12687;SDS011;6408;59.388;17.798;2023-03-01T02:10:47;3.70;;;1.27;;
12687;SDS011;6408;59.388;17.798;2023-03-01T02:13:17;1.93;;;0.90;;
12687;SDS011;6408;59.388;17.798;2023-03-01T02:15:44;4.43;;;1.00;;
12687;SDS011;6408;59.388;17.798;2023-03-01T02:18:14;1.40;;;0.83;;
12687;SDS011;6408;59.388;17.798;2023-03-01T02:20:48;4.17;;;1.00;;
12687;SDS011;6408;59.388;17.798;2023-03-01T02:23:26;0.70;;;0.60;;
12687;SDS011;6408;59.388;17.798;2023-03-01T02:25:57;1.47;;;0.97;;
12687;SDS011;6408;59.388;17.798;2023-03-01T02:28:32;2.23;;;1.10;;
12687;SDS011;6408;59.388;17.798;2023-03-01T02:31:02;2.20;;;0.80;;
12687;SDS011;6408;59.388;17.798;2023-03-01T02:33:48;3.63;;;0.70;;
12687;SDS011;6408;59.388;17.798;2023-03-01T02:36:18;2.80;;;0.90;;
12687;SDS011;6408;59.388;17.798;2023-03-01T02:38:48;1.23;;;0.80;;
12687;SDS011;6408;59.388;17.798;2023-03-01T02:41:17;2.30;;;0.80;;
12687;SDS011;6408;59.388;17.798;2023-03-01T02:43:47;3.40;;;0.83;;
12687;SDS011;6408;59.388;17.798;2023-03-01T02:46:16;2.10;;;0.80;;
12687;SDS011;6408;59.388;17.798;2023-03-01T02:48:47;0.60;;;0.60;;
12687;SDS011;6408;59.388;17.798;2023-03-01T02:51:25;2.73;;;0.97;;
12687;SDS011;6408;59.388;17.798;2023-03-01T02:54:15;1.60;;;0.70;;
12687;SDS011;6408;59.388;17.798;2023-03-01T02:56:49;0.77;;;0.60;;
12687;SDS011;6408;59.388;17.798;2023-03-01T02:59:20;1.70;;;0.93;;
12687;SDS011;6408;59.388;17.798;2023-03-01T03:01:51;0.83;;;0.77;;
12687;SDS011;6408;59.388;17.798;2023-03-01T03:04:19;0.97;;;0.60;;
12687;SDS011;6408;59.388;17.798;2023-03-01T03:06:47;0.60;;;0.60;;
12687;SDS011;6408;59.388;17.798;2023-03-01T03:09:17;2.20;;;0.70;;
12687;SDS011;6408;59.388;17.798;2023-03-01T03:11:45;0.70;;;0.60;;
12687;SDS011;6408;59.388;17.798;2023-03-01T03:14:13;0.50;;;0.50;;
12687;SDS011;6408;59.388;17.798;2023-03-01T03:16:45;0.70;;;0.70;;
12687;SDS011;6408;59.388;17.798;2023-03-01T03:19:13;1.30;;;0.87;;
12687;SDS011;6408;59.388;17.798;2023-03-01T03:21:42;1.23;;;0.60;;
12687;SDS011;6408;59.388;17.798;2023-03-01T03:24:10;1.30;;;0.57;;
12687;SDS011;6408;59.388;17.798;2023-03-01T03:26:37;3.30;;;0.67;;
12687;SDS011;6408;59.388;17.798;2023-03-01T03:29:05;1.40;;;0.77;;
12687;SDS011;6408;59.388;17.798;2023-03-01T03:31:32;1.53;;;0.50;;
12687;SDS011;6408;59.388;17.798;2023-03-01T03:34:02;1.07;;;0.70;;
12687;SDS011;6408;59.388;17.798;2023-03-01T03:36:30;1.47;;;0.67;;
12687;SDS011;6408;59.388;17.798;2023-03-01T03:38:57;0.70;;;0.60;;
12687;SDS011;6408;59.388;17.798;2023-03-01T03:41:25;1.73;;;0.70;;
12687;SDS011;6408;59.388;17.798;2023-03-01T03:43:53;1.03;;;0.60;;
12687;SDS011;6408;59.388;17.798;2023-03-01T03:46:20;2.23;;;0.50;;
12687;SDS011;6408;59.388;17.798;2023-03-01T03:48:48;2.17;;;0.90;;
12687;SDS011;6408;59.388;17.798;2023-03-01T03:51:17;1.27;;;0.60;;
12687;SDS011;6408;59.388;17.798;2023-03-01T03:53:47;2.37;;;0.50;;
12687;SDS011;6408;59.388;17.798;2023-03-01T03:56:15;0.87;;;0.50;;
12687;SDS011;6408;59.388;17.798;2023-03-01T03:58:42;0.53;;;0.53;;
12687;SDS011;6408;59.388;17.798;2023-03-01T04:01:13;0.60;;;0.40;;
12687;SDS011;6408;59.388;17.798;2023-03-01T04:03:40;0.37;;;0.37;;
12687;SDS011;6408;59.388;17.798;2023-03-01T04:06:12;0.87;;;0.70;;
12687;SDS011;6408;59.388;17.798;2023-03-01T04:08:42;2.03;;;0.67;;
12687;SDS011;6408;59.388;17.798;2023-03-01T04:11:10;1.63;;;0.70;;
12687;SDS011;6408;59.388;17.798;2023-03-01T04:13:54;2.00;;;0.87;;
12687;SDS011;6408;59.388;17.798;2023-03-01T04:16:23;1.33;;;0.50;;
12687;SDS011;6408;59.388;17.798;2023-03-01T04:19:04;1.10;;;0.60;;
12687;SDS011;6408;59.388;17.798;2023-03-01T04:21:31;2.90;;;0.77;;
12687;SDS011;6408;59.388;17.798;2023-03-01T04:24:03;3.93;;;0.70;;
12687;SDS011;6408;59.388;17.798;2023-03-01T04:26:31;3.17;;;0.60;;
12687;SDS011;6408;59.388;17.798;2023-03-01T04:28:59;1.60;;;0.60;;
12687;SDS011;6408;59.388;17.798;2023-03-01T04:31:27;0.40;;;0.40;;
12687;SDS011;6408;59.388;17.798;2023-03-01T04:33:54;0.83;;;0.50;;
12687;SDS011;6408;59.388;17.798;2023-03-01T04:36:23;2.10;;;1.57;;
12687;SDS011;6408;59.388;17.798;2023-03-01T04:38:52;0.93;;;0.50;;
12687;SDS011;6408;59.388;17.798;2023-03-01T04:41:22;0.90;;;0.43;;
12687;SDS011;6408;59.388;17.798;2023-03-01T04:43:51;1.23;;;0.80;;
12687;SDS011;6408;59.388;17.798;2023-03-01T04:46:19;1.10;;;0.50;;
12687;SDS011;6408;59.388;17.798;2023-03-01T04:48:47;0.60;;;0.60;;
12687;SDS011;6408;59.388;17.798;2023-03-01T04:51:15;0.60;;;0.40;;
12687;SDS011;6408;59.388;17.798;2023-03-01T04:53:43;0.43;;;0.40;;
12687;SDS011;6408;59.388;17.798;2023-03-01T04:56:11;2.30;;;0.67;;
12687;SDS011;6408;59.388;17.798;2023-03-01T04:58:42;3.27;;;0.63;;
12687;SDS011;6408;59.388;17.798;2023-03-01T05:01:09;0.27;;;0.20;;
12687;SDS011;6408;59.388;17.798;2023-03-01T05:03:42;0.57;;;0.47;;
12687;SDS011;6408;59.388;17.798;2023-03-01T05:06:10;2.30;;;0.60;;
12687;SDS011;6408;59.388;17.798;2023-03-01T05:08:38;0.43;;;0.43;;
12687;SDS011;6408;59.388;17.798;2023-03-01T05:11:07;1.83;;;0.50;;
12687;SDS011;6408;59.388;17.798;2023-03-01T05:13:35;1.40;;;0.40;;
12687;SDS011;6408;59.388;17.798;2023-03-01T05:16:05;1.30;;;0.60;;
12687;SDS011;6408;59.388;17.798;2023-03-01T05:18:36;1.50;;;0.57;;
12687;SDS011;6408;59.388;17.798;2023-03-01T05:21:05;2.57;;;0.50;;
12687;SDS011;6408;59.388;17.798;2023-03-01T05:23:34;2.37;;;0.50;;
12687;SDS011;6408;59.388;17.798;2023-03-01T05:26:02;0.63;;;0.30;;
12687;SDS011;6408;59.388;17.798;2023-03-01T05:28:30;0.77;;;0.57;;
12687;SDS011;6408;59.388;17.798;2023-03-01T05:30:58;0.20;;;0.20;;
12687;SDS011;6408;59.388;17.798;2023-03-01T05:33:28;0.30;;;0.30;;
12687;SDS011;6408;59.388;17.798;2023-03-01T05:35:59;1.27;;;0.50;;
12687;SDS011;6408;59.388;17.798;2023-03-01T05:38:26;1.40;;;0.53;;
12687;SDS011;6408;59.388;17.798;2023-03-01T05:40:54;1.77;;;1.00;;
12687;SDS011;6408;59.388;17.798;2023-03-01T05:43:22;0.73;;;0.53;;
12687;SDS011;6408;59.388;17.798;2023-03-01T05:45:49;1.10;;;0.50;;
12687;SDS011;6408;59.388;17.798;2023-03-01T05:48:17;0.83;;;0.67;;
12687;SDS011;6408;59.388;17.798;2023-03-01T05:50:46;0.93;;;0.93;;
12687;SDS011;6408;59.388;17.798;2023-03-01T05:53:14;1.07;;;0.53;;
12687;SDS011;6408;59.388;17.798;2023-03-01T05:55:44;1.13;;;0.70;;
12687;SDS011;6408;59.388;17.798;2023-03-01T05:58:13;1.00;;;0.80;;
12687;SDS011;6408;59.388;17.798;2023-03-01T06:00:42;0.53;;;0.20;;
12687;SDS011;6408;59.388;17.798;2023-03-01T06:03:11;0.33;;;0.33;;
12687;SDS011;6408;59.388;17.798;2023-03-01T06:05:40;1.90;;;0.60;;
12687;SDS011;6408;59.388;17.798;2023-03-01T06:08:10;2.60;;;0.60;;
12687;SDS011;6408;59.388;17.798;2023-03-01T06:10:39;0.93;;;0.30;;
12687;SDS011;6408;59.388;17.798;2023-03-01T06:13:06;1.30;;;0.73;;
12687;SDS011;6408;59.388;17.798;2023-03-01T06:15:34;0.97;;;0.37;;
12687;SDS011;6408;59.388;17.798;2023-03-01T06:18:02;3.60;;;0.47;;
12687;SDS011;6408;59.388;17.798;2023-03-01T06:20:30;0.60;;;0.53;;
12687;SDS011;6408;59.388;17.798;2023-03-01T06:22:57;1.00;;;0.53;;
12687;SDS011;6408;59.388;17.798;2023-03-01T06:25:27;0.83;;;0.40;;
12687;SDS011;6408;59.388;17.798;2023-03-01T06:27:55;0.50;;;0.50;;
12687;SDS011;6408;59.388;17.798;2023-03-01T06:30:23;0.60;;;0.50;;
12687;SDS011;6408;59.388;17.798;2023-03-01T06:32:52;0.97;;;0.43;;
12687;SDS011;6408;59.388;17.798;2023-03-01T06:35:26;5.43;;;0.50;;
12687;SDS011;6408;59.388;17.798;2023-03-01T06:37:56;1.10;;;0.40;;
12687;SDS011;6408;59.388;17.798;2023-03-01T06:40:25;1.10;;;0.50;;
12687;SDS011;6408;59.388;17.798;2023-03-01T06:42:56;0.97;;;0.47;;
12687;SDS011;6408;59.388;17.798;2023-03-01T06:45:24;1.40;;;0.30;;
12687;SDS011;6408;59.388;17.798;2023-03-01T06:47:51;0.70;;;0.40;;
12687;SDS011;6408;59.388;17.798;2023-03-01T06:50:19;1.87;;;0.80;;
12687;SDS011;6408;59.388;17.798;2023-03-01T06:52:47;2.47;;;1.50;;
12687;SDS011;6408;59.388;17.798;2023-03-01T06:55:15;5.50;;;3.43;;
12687;SDS011;6408;59.388;17.798;2023-03-01T06:57:44;4.97;;;3.23;;
12687;SDS011;6408;59.388;17.798;2023-03-01T07:00:12;3.90;;;2.20;;
12687;SDS011;6408;59.388;17.798;2023-03-01T07:02:41;3.67;;;1.80;;
12687;SDS011;6408;59.388;17.798;2023-03-01T07:05:08;2.97;;;1.57;;
12687;SDS011;6408;59.388;17.798;2023-03-01T07:07:36;2.03;;;1.30;;
12687;SDS011;6408;59.388;17.798;2023-03-01T07:10:04;2.10;;;1.47;;
12687;SDS011;6408;59.388;17.798;2023-03-01T07:12:32;1.30;;;1.07;;
12687;SDS011;6408;59.388;17.798;2023-03-01T07:15:02;1.77;;;0.93;;
12687;SDS011;6408;59.388;17.798;2023-03-01T07:17:30;1.00;;;0.83;;
12687;SDS011;6408;59.388;17.798;2023-03-01T07:19:57;0.60;;;0.60;;
12687;SDS011;6408;59.388;17.798;2023-03-01T07:22:25;1.37;;;0.70;;
12687;SDS011;6408;59.388;17.798;2023-03-01T07:24:52;2.77;;;0.77;;
12687;SDS011;6408;59.388;17.798;2023-03-01T07:27:20;1.00;;;0.60;;
12687;SDS011;6408;59.388;17.798;2023-03-01T07:29:47;1.20;;;1.00;;
12687;SDS011;6408;59.388;17.798;2023-03-01T07:32:17;1.03;;;0.53;;
12687;SDS011;6408;59.388;17.798;2023-03-01T07:34:45;1.90;;;0.43;;
12687;SDS011;6408;59.388;17.798;2023-03-01T07:37:12;0.63;;;0.50;;
12687;SDS011;6408;59.388;17.798;2023-03-01T07:39:40;1.10;;;0.70;;
12687;SDS011;6408;59.388;17.798;2023-03-01T07:42:08;1.20;;;0.60;;
12687;SDS011;6408;59.388;17.798;2023-03-01T07:44:35;1.00;;;0.70;;
12687;SDS011;6408;59.388;17.798;2023-03-01T07:47:03;0.40;;;0.40;;
12687;SDS011;6408;59.388;17.798;2023-03-01T07:49:33;0.70;;;0.43;;
12687;SDS011;6408;59.388;17.798;2023-03-01T07:52:00;1.33;;;0.50;;
12687;SDS011;6408;59.388;17.798;2023-03-01T07:54:28;1.43;;;0.80;;
12687;SDS011;6408;59.388;17.798;2023-03-01T07:56:56;0.43;;;0.30;;
12687;SDS011;6408;59.388;17.798;2023-03-01T07:59:23;0.87;;;0.60;;
12687;SDS011;6408;59.388;17.798;2023-03-01T08:01:54;0.47;;;0.30;;
12687;SDS011;6408;59.388;17.798;2023-03-01T08:04:22;0.77;;;0.50;;
12687;SDS011;6408;59.388;17.798;2023-03-01T08:06:51;1.93;;;0.40;;
12687;SDS011;6408;59.388;17.798;2023-03-01T08:09:19;2.00;;;0.50;;
12687;SDS011;6408;59.388;17.798;2023-03-01T08:11:47;2.67;;;0.20;;
12687;SDS011;6408;59.388;17.798;2023-03-01T08:14:15;1.43;;;0.50;;
12687;SDS011;6408;59.388;17.798;2023-03-01T08:16:42;0.30;;;0.30;;
12687;SDS011;6408;59.388;17.798;2023-03-01T08:19:11;0.50;;;0.30;;
12687;SDS011;6408;59.388;17.798;2023-03-01T08:21:38;1.13;;;0.50;;
12687;SDS011;6408;59.388;17.798;2023-03-01T08:24:08;1.27;;;0.47;;
12687;SDS011;6408;59.388;17.798;2023-03-01T08:26:36;3.80;;;0.50;;
12687;SDS011;6408;59.388;17.798;2023-03-01T08:29:04;2.63;;;0.50;;
12687;SDS011;6408;59.388;17.798;2023-03-01T08:31:32;1.47;;;0.60;;
12687;SDS011;6408;59.388;17.798;2023-03-01T08:34:02;2.77;;;0.63;;
12687;SDS011;6408;59.388;17.798;2023-03-01T08:36:31;1.80;;;0.47;;
12687;SDS011;6408;59.388;17.798;2023-03-01T08:39:02;0.47;;;0.47;;
12687;SDS011;6408;59.388;17.798;2023-03-01T08:41:32;1.13;;;0.70;;
12687;SDS011;6408;59.388;17.798;2023-03-01T08:43:59;1.17;;;0.43;;
12687;SDS011;6408;59.388;17.798;2023-03-01T08:46:27;4.83;;;0.57;;
12687;SDS011;6408;59.388;17.798;2023-03-01T08:48:55;0.53;;;0.30;;
12687;SDS011;6408;59.388;17.798;2023-03-01T08:51:23;1.27;;;0.40;;
12687;SDS011;6408;59.388;17.798;2023-03-01T08:53:52;0.47;;;0.30;;
12687;SDS011;6408;59.388;17.798;2023-03-01T08:56:20;1.00;;;0.37;;
12687;SDS011;6408;59.388;17.798;2023-03-01T08:58:49;2.33;;;0.40;;
12687;SDS011;6408;59.388;17.798;2023-03-01T09:01:17;0.67;;;0.47;;
12687;SDS011;6408;59.388;17.798;2023-03-01T09:03:46;1.60;;;0.57;;
12687;SDS011;6408;59.388;17.798;2023-03-01T09:06:14;2.10;;;0.50;;
12687;SDS011;6408;59.388;17.798;2023-03-01T09:08:42;1.43;;;0.60;;
12687;SDS011;6408;59.388;17.798;2023-03-01T09:11:13;0.63;;;0.50;;
12687;SDS011;6408;59.388;17.798;2023-03-01T09:13:42;0.50;;;0.50;;
12687;SDS011;6408;59.388;17.798;2023-03-01T09:16:12;1.73;;;0.50;;
12687;SDS011;6408;59.388;17.798;2023-03-01T09:18:41;1.23;;;0.60;;
12687;SDS011;6408;59.388;17.798;2023-03-01T09:21:10;1.10;;;0.40;;
12687;SDS011;6408;59.388;17.798;2023-03-01T09:23:41;0.70;;;0.60;;
12687;SDS011;6408;59.388;17.798;2023-03-01T09:26:10;0.70;;;0.40;;
12687;SDS011;6408;59.388;17.798;2023-03-01T09:28:39;0.63;;;0.50;;
12687;SDS011;6408;59.388;17.798;2023-03-01T09:31:07;0.87;;;0.53;;
12687;SDS011;6408;59.388;17.798;2023-03-01T09:33:39;1.80;;;0.57;;
12687;SDS011;6408;59.388;17.798;2023-03-01T09:36:10;2.22;;;0.60;;
12687;SDS011;6408;59.388;17.798;2023-03-01T09:38:39;0.40;;;0.35;;
12687;SDS011;6408;59.388;17.798;2023-03-01T09:41:10;0.50;;;0.50;;
12687;SDS011;6408;59.388;17.798;2023-03-01T09:43:48;1.20;;;0.80;;
12687;SDS011;6408;59.388;17.798;2023-03-01T09:46:19;0.35;;;0.32;;
12687;SDS011;6408;59.388;17.798;2023-03-01T09:48:51;0.70;;;0.70;;
12687;SDS011;6408;59.388;17.798;2023-03-01T09:51:23;0.55;;;0.55;;
12687;SDS011;6408;59.388;17.798;2023-03-01T09:53:53;0.90;;;0.73;;
12687;SDS011;6408;59.388;17.798;2023-03-01T09:56:24;1.60;;;0.63;;
12687;SDS011;6408;59.388;17.798;2023-03-01T09:58:57;0.35;;;0.32;;
12687;SDS011;6408;59.388;17.798;2023-03-01T10:01:32;1.15;;;0.77;;
12687;SDS011;6408;59.388;17.798;2023-03-01T10:04:23;0.68;;;0.50;;
12687;SDS011;6408;59.388;17.798;2023-03-01T10:07:03;0.98;;;0.50;;
12687;SDS011;6408;59.388;17.798;2023-03-01T10:09:53;0.73;;;0.60;;
12687;SDS011;6408;59.388;17.798;2023-03-01T10:12:22;1.13;;;0.70;;
12687;SDS011;6408;59.388;17.798;2023-03-01T10:14:55;0.50;;;0.50;;
12687;SDS011;6408;59.388;17.798;2023-03-01T10:17:30;0.43;;;0.43;;
12687;SDS011;6408;59.388;17.798;2023-03-01T10:20:10;1.48;;;0.73;;
12687;SDS011;6408;59.388;17.798;2023-03-01T10:22:44;1.08;;;0.60;;
12687;SDS011;6408;59.388;17.798;2023-03-01T10:25:16;0.75;;;0.55;;
12687;SDS011;6408;59.388;17.798;2023-03-01T10:27:51;0.95;;;0.52;;
12687;SDS011;6408;59.388;17.798;2023-03-01T10:30:20;1.35;;;0.70;;
12687;SDS011;6408;59.388;17.798;2023-03-01T10:32:56;0.40;;;0.40;;
12687;SDS011;6408;59.388;17.798;2023-03-01T10:35:27;0.65;;;0.65;;
12687;SDS011;6408;59.388;17.798;2023-03-01T10:37:56;0.63;;;0.50;;
12687;SDS011;6408;59.388;17.798;2023-03-01T10:40:25;0.57;;;0.57;;
12687;SDS011;6408;59.388;17.798;2023-03-01T10:42:52;0.70;;;0.60;;
12687;SDS011;6408;59.388;17.798;2023-03-01T10:45:27;1.00;;;0.70;;
12687;SDS011;6408;59.388;17.798;2023-03-01T10:48:05;0.80;;;0.47;;
12687;SDS011;6408;59.388;17.798;2023-03-01T10:50:42;0.50;;;0.50;;
12687;SDS011;6408;59.388;17.798;2023-03-01T10:53:20;0.50;;;0.50;;
12687;SDS011;6408;59.388;17.798;2023-03-01T10:56:01;0.40;;;0.40;;
12687;SDS011;6408;59.388;17.798;2023-03-01T10:58:31;1.38;;;0.55;;
12687;SDS011;6408;59.388;17.798;2023-03-01T11:01:00;0.85;;;0.52;;
12687;SDS011;6408;59.388;17.798;2023-03-01T11:03:30;0.63;;;0.60;;
12687;SDS011;6408;59.388;17.798;2023-03-01T11:06:06;0.70;;;0.60;;
12687;SDS011;6408;59.388;17.798;2023-03-01T11:08:49;0.57;;;0.57;;
12687;SDS011;6408;59.388;17.798;2023-03-01T11:11:23;1.08;;;0.60;;
12687;SDS011;6408;59.388;17.798;2023-03-01T11:13:57;0.70;;;0.70;;
12687;SDS011;6408;59.388;17.798;2023-03-01T11:16:27;1.52;;;0.63;;
12687;SDS011;6408;59.388;17.798;2023-03-01T11:19:13;1.23;;;0.73;;
12687;SDS011;6408;59.388;17.798;2023-03-01T11:21:47;0.70;;;0.70;;
12687;SDS011;6408;59.388;17.798;2023-03-01T11:24:25;0.40;;;0.40;;
12687;SDS011;6408;59.388;17.798;2023-03-01T11:26:57;1.15;;;0.70;;
12687;SDS011;6408;59.388;17.798;2023-03-01T11:29:30;2.80;;;0.80;;
12687;SDS011;6408;59.388;17.798;2023-03-01T11:32:04;0.63;;;0.63;;
12687;SDS011;6408;59.388;17.798;2023-03-01T11:34:37;0.50;;;0.50;;
12687;SDS011;6408;59.388;17.798;2023-03-01T11:37:14;1.30;;;0.70;;
12687;SDS011;6408;59.388;17.798;2023-03-01T11:39:52;1.63;;;0.60;;
12687;SDS011;6408;59.388;17.798;2023-03-01T11:42:28;0.60;;;0.60;;
12687;SDS011;6408;59.388;17.798;2023-03-01T11:45:06;0.50;;;0.50;;
12687;SDS011;6408;59.388;17.798;2023-03-01T11:50:39;1.20;;;1.10;;
12687;SDS011;6408;59.388;17.798;2023-03-01T11:53:20;2.20;;;1.00;;
12687;SDS011;6408;59.388;17.798;2023-03-01T11:56:11;0.68;;;0.68;;
12687;SDS011;6408;59.388;17.798;2023-03-01T11:58:52;0.98;;;0.65;;
12687;SDS011;6408;59.388;17.798;2023-03-01T12:01:33;0.55;;;0.55;;
12687;SDS011;6408;59.388;17.798;2023-03-01T12:04:29;0.80;;;0.50;;
12687;SDS011;6408;59.388;17.798;2023-03-01T12:07:14;0.60;;;0.55;;
12687;SDS011;6408;59.388;17.798;2023-03-01T12:12:53;1.10;;;0.55;;
12687;SDS011;6408;59.388;17.798;2023-03-01T12:21:39;2.15;;;0.45;;
12687;SDS011;6408;59.388;17.798;2023-03-01T12:24:21;0.55;;;0.40;;
12687;SDS011;6408;59.388;17.798;2023-03-01T12:27:12;0.47;;;0.47;;
12687;SDS011;6408;59.388;17.798;2023-03-01T12:29:50;0.40;;;0.40;;
12687;SDS011;6408;59.388;17.798;2023-03-01T12:32:27;0.52;;;0.50;;
12687;SDS011;6408;59.388;17.798;2023-03-01T12:35:13;2.30;;;0.55;;
12687;SDS011;6408;59.388;17.798;2023-03-01T12:37:56;0.90;;;0.60;;
12687;SDS011;6408;59.388;17.798;2023-03-01T12:43:35;1.73;;;0.60;;
12687;SDS011;6408;59.388;17.798;2023-03-01T12:46:18;1.30;;;0.70;;
12687;SDS011;6408;59.388;17.798;2023-03-01T12:48:55;1.20;;;0.73;;
12687;SDS011;6408;59.388;17.798;2023-03-01T12:51:30;0.53;;;0.50;;
12687;SDS011;6408;59.388;17.798;2023-03-01T12:54:00;0.47;;;0.47;;
12687;SDS011;6408;59.388;17.798;2023-03-01T12:56:38;1.60;;;0.40;;
12687;SDS011;6408;59.388;17.798;2023-03-01T12:59:08;0.53;;;0.40;;
12687;SDS011;6408;59.388;17.798;2023-03-01T13:01:45;0.20;;;0.20;;
12687;SDS011;6408;59.388;17.798;2023-03-01T13:04:21;0.80;;;0.40;;
12687;SDS011;6408;59.388;17.798;2023-03-01T13:06:58;0.23;;;0.23;;
12687;SDS011;6408;59.388;17.798;2023-03-01T13:09:43;0.93;;;0.33;;
12687;SDS011;6408;59.388;17.798;2023-03-01T13:15:32;0.70;;;0.50;;
12687;SDS011;6408;59.388;17.798;2023-03-01T13:18:03;0.47;;;0.30;;
12687;SDS011;6408;59.388;17.798;2023-03-01T13:20:52;0.30;;;0.30;;
12687;SDS011;6408;59.388;17.798;2023-03-01T13:23:26;0.40;;;0.40;;
12687;SDS011;6408;59.388;17.798;2023-03-01T13:26:00;0.27;;;0.27;;
12687;SDS011;6408;59.388;17.798;2023-03-01T13:28:47;0.93;;;0.60;;
12687;SDS011;6408;59.388;17.798;2023-03-01T13:34:43;1.30;;;0.30;;
12687;SDS011;6408;59.388;17.798;2023-03-01T13:37:18;0.30;;;0.30;;
12687;SDS011;6408;59.388;17.798;2023-03-01T13:39:51;0.37;;;0.30;;
12687;SDS011;6408;59.388;17.798;2023-03-01T13:45:21;1.17;;;0.50;;
12687;SDS011;6408;59.388;17.798;2023-03-01T13:47:58;0.67;;;0.37;;
12687;SDS011;6408;59.388;17.798;2023-03-01T13:50:32;1.07;;;0.43;;
12687;SDS011;6408;59.388;17.798;2023-03-01T13:53:04;0.50;;;0.50;;
12687;SDS011;6408;59.388;17.798;2023-03-01T13:55:36;1.20;;;1.10;;
12687;SDS011;6408;59.388;17.798;2023-03-01T13:58:14;2.13;;;1.60;;
12687;SDS011;6408;59.388;17.798;2023-03-01T14:00:45;1.63;;;0.80;;
12687;SDS011;6408;59.388;17.798;2023-03-01T14:03:13;1.27;;;1.00;;
12687;SDS011;6408;59.388;17.798;2023-03-01T14:05:57;1.07;;;0.97;;
12687;SDS011;6408;59.388;17.798;2023-03-01T14:08:32;1.07;;;0.80;;
12687;SDS011;6408;59.388;17.798;2023-03-01T14:14:08;0.73;;;0.50;;
12687;SDS011;6408;59.388;17.798;2023-03-01T14:16:50;0.63;;;0.60;;
12687;SDS011;6408;59.388;17.798;2023-03-01T14:19:25;1.23;;;0.40;;
12687;SDS011;6408;59.388;17.798;2023-03-01T14:22:00;1.50;;;0.30;;
12687;SDS011;6408;59.388;17.798;2023-03-01T14:24:38;0.80;;;0.20;;
12687;SDS011;6408;59.388;17.798;2023-03-01T14:27:11;0.30;;;0.30;;
12687;SDS011;6408;59.388;17.798;2023-03-01T14:29:39;0.40;;;0.40;;
12687;SDS011;6408;59.388;17.798;2023-03-01T14:32:11;0.30;;;0.23;;
12687;SDS011;6408;59.388;17.798;2023-03-01T14:34:45;0.97;;;0.50;;
12687;SDS011;6408;59.388;17.798;2023-03-01T14:37:21;0.37;;;0.37;;
12687;SDS011;6408;59.388;17.798;2023-03-01T14:39:52;0.67;;;0.47;;
12687;SDS011;6408;59.388;17.798;2023-03-01T14:42:20;0.57;;;0.40;;
12687;SDS011;6408;59.388;17.798;2023-03-01T14:44:50;0.23;;;0.23;;
12687;SDS011;6408;59.388;17.798;2023-03-01T14:47:24;1.17;;;0.40;;
12687;SDS011;6408;59.388;17.798;2023-03-01T14:49:57;0.40;;;0.37;;
12687;SDS011;6408;59.388;17.798;2023-03-01T14:55:17;0.20;;;0.20;;
12687;SDS011;6408;59.388;17.798;2023-03-01T14:57:47;0.10;;;0.10;;
12687;SDS011;6408;59.388;17.798;2023-03-01T15:00:17;2.47;;;0.20;;
12687;SDS011;6408;59.388;17.798;2023-03-01T15:02:47;1.70;;;0.23;;
12687;SDS011;6408;59.388;17.798;2023-03-01T15:05:18;0.67;;;0.30;;
12687;SDS011;6408;59.388;17.798;2023-03-01T15:07:53;0.83;;;0.20;;
12687;SDS011;6408;59.388;17.798;2023-03-01T15:10:22;0.43;;;0.37;;
12687;SDS011;6408;59.388;17.798;2023-03-01T15:12:51;0.47;;;0.30;;
12687;SDS011;6408;59.388;17.798;2023-03-01T15:15:32;0.30;;;0.30;;
12687;SDS011;6408;59.388;17.798;2023-03-01T15:18:14;1.13;;;0.30;;
12687;SDS011;6408;59.388;17.798;2023-03-01T15:20:44;0.20;;;0.20;;
12687;SDS011;6408;59.388;17.798;2023-03-01T15:26:03;0.50;;;0.50;;
12687;SDS011;6408;59.388;17.798;2023-03-01T15:28:31;0.70;;;0.40;;
12687;SDS011;6408;59.388;17.798;2023-03-01T15:31:02;0.57;;;0.50;;
12687;SDS011;6408;59.388;17.798;2023-03-01T15:33:36;0.43;;;0.30;;
12687;SDS011;6408;59.388;17.798;2023-03-01T15:36:32;0.90;;;0.40;;
12687;SDS011;6408;59.388;17.798;2023-03-01T15:39:05;0.40;;;0.40;;
12687;SDS011;6408;59.388;17.798;2023-03-01T15:42:04;0.73;;;0.50;;
12687;SDS011;6408;59.388;17.798;2023-03-01T15:44:34;0.80;;;0.80;;
12687;SDS011;6408;59.388;17.798;2023-03-01T15:47:03;0.30;;;0.30;;
12687;SDS011;6408;59.388;17.798;2023-03-01T15:49:50;1.50;;;0.50;;